createdAt,value
2019-05-12T00:00:07.850Z,83.40
2019-05-12T00:02:39.492Z,83.30
2019-05-12T00:05:08.560Z,82.90
2019-05-12T00:07:37.936Z,82.40
2019-05-12T00:10:05.619Z,82.40
2019-05-12T00:12:33.717Z,82.90
2019-05-12T00:15:01.248Z,83.00
2019-05-12T00:17:29.445Z,82.70
2019-05-12T00:19:58.473Z,83.70
2019-05-12T00:22:30.378Z,83.30
2019-05-12T00:24:58.398Z,83.80
2019-05-12T00:27:28.089Z,83.50
2019-05-12T00:29:57.786Z,82.90
2019-05-12T00:32:25.433Z,82.60
2019-05-12T00:34:53.437Z,82.60
2019-05-12T00:37:21.330Z,82.50
2019-05-12T00:39:49.552Z,82.30
2019-05-12T00:42:18.305Z,82.40
2019-05-12T00:44:47.889Z,82.60
2019-05-12T00:47:15.670Z,82.80
2019-05-12T00:49:43.050Z,82.50
2019-05-12T00:52:10.433Z,82.10
2019-05-12T00:54:37.946Z,82.10
2019-05-12T00:57:07.698Z,82.30
2019-05-12T00:59:47.899Z,82.30
2019-05-12T01:02:15.360Z,82.80
2019-05-12T01:04:43.456Z,83.50
2019-05-12T01:07:10.793Z,84.40
2019-05-12T01:09:38.640Z,84.30
2019-05-12T01:12:07.955Z,84.10
2019-05-12T01:14:35.470Z,83.60
2019-05-12T01:17:02.837Z,84.00
2019-05-12T01:19:30.680Z,84.00
2019-05-12T01:21:58.790Z,84.60
2019-05-12T01:24:28.205Z,84.10
2019-05-12T01:26:58.214Z,83.90
2019-05-12T01:29:28.098Z,83.40
2019-05-12T01:32:02.307Z,84.20
2019-05-12T01:34:29.684Z,84.10
2019-05-12T01:37:18.383Z,84.20
2019-05-12T01:39:48.967Z,83.80
2019-05-12T01:42:17.930Z,84.40
2019-05-12T01:44:48.043Z,84.30
2019-05-12T01:47:15.598Z,84.70
2019-05-12T01:49:42.953Z,84.50
2019-05-12T01:52:10.454Z,85.30
2019-05-12T01:54:38.063Z,85.20
2019-05-12T01:57:07.977Z,85.90
2019-05-12T01:59:35.209Z,85.40
2019-05-12T02:02:02.646Z,85.00
2019-05-12T02:04:32.902Z,85.10
2019-05-12T02:07:02.752Z,84.70
2019-05-12T02:09:32.046Z,85.00
2019-05-12T02:11:59.426Z,84.50
2019-05-12T02:14:27.643Z,85.50
2019-05-12T02:16:55.371Z,85.80
2019-05-12T02:19:23.227Z,85.80
2019-05-12T02:21:51.163Z,86.20
2019-05-12T02:24:26.839Z,86.60
2019-05-12T02:26:48.646Z,85.80
2019-05-12T02:29:18.309Z,85.90
2019-05-12T02:31:46.093Z,85.70
2019-05-12T02:34:15.652Z,85.50
2019-05-12T02:36:45.065Z,85.20
2019-05-12T02:39:15.077Z,84.60
2019-05-12T02:41:44.698Z,84.50
2019-05-12T02:44:14.590Z,84.80
2019-05-12T02:46:41.171Z,84.70
2019-05-12T02:49:08.546Z,84.60
2019-05-12T02:51:35.901Z,84.50
2019-05-12T02:54:05.498Z,84.40
2019-05-12T02:56:35.559Z,83.70
2019-05-12T02:59:05.176Z,84.00
2019-05-12T03:01:34.929Z,84.10
2019-05-12T03:04:05.709Z,84.10
2019-05-12T03:06:36.121Z,83.60
2019-05-12T03:09:06.695Z,84.40
2019-05-12T03:11:35.843Z,84.10
2019-05-12T03:14:04.519Z,84.50
2019-05-12T03:16:34.961Z,85.50
2019-05-12T03:19:04.982Z,86.60
2019-05-12T03:21:34.337Z,86.50
2019-05-12T03:24:05.682Z,86.10
2019-05-12T03:26:34.529Z,86.00
2019-05-12T03:29:00.954Z,85.90
2019-05-12T03:31:31.713Z,86.20
2019-05-12T03:34:00.452Z,86.80
2019-05-12T03:36:34.561Z,86.50
2019-05-12T03:38:58.081Z,86.50
2019-05-12T03:41:26.192Z,87.60
2019-05-12T03:43:54.962Z,86.70
2019-05-12T03:46:24.898Z,86.60
2019-05-12T03:48:55.143Z,86.00
2019-05-12T03:51:24.782Z,86.00
2019-05-12T03:53:50.867Z,85.60
2019-05-12T03:56:18.818Z,86.00
2019-05-12T03:58:46.338Z,86.20
2019-05-12T04:01:15.207Z,85.60
2019-05-12T04:03:45.078Z,86.30
2019-05-12T04:06:15.490Z,85.90
2019-05-12T04:08:45.222Z,85.60
2019-05-12T04:11:14.567Z,85.70
2019-05-12T04:13:44.962Z,85.80
2019-05-12T04:16:11.318Z,86.30
2019-05-12T04:18:39.446Z,86.30
2019-05-12T04:21:07.109Z,86.20
2019-05-12T04:23:35.092Z,86.20
2019-05-12T04:26:11.440Z,86.70
2019-05-12T04:28:35.106Z,87.00
2019-05-12T04:31:05.489Z,87.10
2019-05-12T04:33:34.651Z,86.70
2019-05-12T04:36:05.278Z,86.50
2019-05-12T04:38:31.675Z,86.80
2019-05-12T04:40:59.557Z,87.30
2019-05-12T04:43:27.412Z,87.60
2019-05-12T04:45:56.065Z,87.60
2019-05-12T04:48:25.813Z,87.50
2019-05-12T04:50:54.916Z,88.00
2019-05-12T04:53:25.214Z,87.80
2019-05-12T04:56:09.756Z,88.20
2019-05-12T04:58:24.966Z,88.40
2019-05-12T05:00:54.071Z,89.20
2019-05-12T05:03:24.525Z,89.20
2019-05-12T05:05:50.601Z,89.40
2019-05-12T05:08:19.854Z,89.20
2019-05-12T05:10:48.242Z,90.00
2019-05-12T05:13:16.095Z,89.70
2019-05-12T05:15:44.641Z,89.60
2019-05-12T05:18:15.732Z,90.00
2019-05-12T05:20:44.008Z,90.00
2019-05-12T05:23:14.062Z,90.00
2019-05-12T05:25:43.484Z,89.60
2019-05-12T05:28:11.009Z,89.60
2019-05-12T05:30:38.466Z,89.90
2019-05-12T05:33:06.402Z,90.10
2019-05-12T05:35:38.999Z,90.60
2019-05-12T05:38:04.472Z,90.60
2019-05-12T05:40:32.105Z,90.50
2019-05-12T05:43:03.651Z,90.60
2019-05-12T05:45:29.124Z,90.80
2019-05-12T05:47:59.631Z,90.60
2019-05-12T05:50:29.558Z,90.90
2019-05-12T05:52:55.322Z,91.00
2019-05-12T05:55:23.421Z,91.40
2019-05-12T05:57:53.535Z,91.50
2019-05-12T06:00:23.782Z,91.70
2019-05-12T06:02:50.832Z,91.80
2019-05-12T06:05:19.905Z,91.70
2019-05-12T06:07:47.682Z,91.40
2019-05-12T06:10:15.183Z,90.80
2019-05-12T06:12:48.744Z,90.80
2019-05-12T06:15:13.655Z,91.30
2019-05-12T06:17:43.703Z,91.40
2019-05-12T06:20:13.273Z,91.30
2019-05-12T06:22:43.603Z,89.80
2019-05-12T06:25:10.566Z,88.30
2019-05-12T06:27:38.391Z,89.20
2019-05-12T06:30:07.674Z,87.80
2019-05-12T06:32:36.265Z,88.70
2019-05-12T06:35:04.684Z,89.30
2019-05-12T06:37:33.889Z,88.40
2019-05-12T06:40:03.612Z,89.70
2019-05-12T06:42:31.363Z,85.20
2019-05-12T06:44:58.876Z,81.30
2019-05-12T06:47:26.397Z,80.70
2019-05-12T06:49:58.040Z,79.60
2019-05-12T06:52:23.828Z,79.10
2019-05-12T06:54:56.655Z,82.00
2019-05-12T06:57:25.076Z,79.90
2019-05-12T06:59:51.223Z,79.00
2019-05-12T07:02:19.590Z,77.90
2019-05-12T07:04:54.148Z,78.80
2019-05-12T07:07:16.690Z,79.20
2019-05-12T07:09:51.983Z,80.50
2019-05-12T07:12:14.022Z,81.10
2019-05-12T07:14:43.756Z,78.40
2019-05-12T07:17:24.585Z,79.70
2019-05-12T07:19:54.827Z,75.40
2019-05-12T07:22:23.408Z,76.40
2019-05-12T07:24:52.800Z,78.50
2019-05-12T07:27:35.301Z,77.80
2019-05-12T07:29:50.350Z,81.00
2019-05-12T07:32:21.703Z,77.10
2019-05-12T07:34:48.635Z,79.10
2019-05-12T07:37:17.905Z,78.60
2019-05-12T07:39:49.446Z,76.00
2019-05-12T07:42:22.743Z,77.10
2019-05-12T07:44:48.311Z,77.80
2019-05-12T07:47:19.165Z,78.50
2019-05-12T07:49:46.262Z,74.80
2019-05-12T07:52:14.228Z,75.70
2019-05-12T07:54:44.275Z,75.50
2019-05-12T07:57:17.114Z,75.90
2019-05-12T07:59:43.678Z,75.00
2019-05-12T08:02:11.261Z,73.80
2019-05-12T08:04:39.954Z,71.00
2019-05-12T08:07:08.832Z,69.80
2019-05-12T08:09:36.686Z,73.90
2019-05-12T08:12:09.487Z,69.90
2019-05-12T08:14:35.154Z,71.70
2019-05-12T08:17:11.167Z,70.90
2019-05-12T08:19:33.752Z,72.90
2019-05-12T08:22:04.317Z,72.80
2019-05-12T08:24:36.200Z,74.00
2019-05-12T08:27:06.084Z,74.20
2019-05-12T08:29:31.508Z,73.80
2019-05-12T08:31:59.484Z,74.70
2019-05-12T08:34:27.362Z,74.00
2019-05-12T08:36:57.810Z,74.10
2019-05-12T08:39:26.033Z,72.80
2019-05-12T08:41:53.691Z,73.70
2019-05-12T08:44:24.831Z,74.60
2019-05-12T08:46:52.146Z,71.50
2019-05-12T08:49:23.358Z,74.40
2019-05-12T08:51:57.847Z,72.40
2019-05-12T08:54:23.243Z,70.80
2019-05-12T08:56:55.920Z,72.00
2019-05-12T08:59:24.950Z,73.80
2019-05-12T09:01:49.762Z,72.90
2019-05-12T09:04:18.354Z,70.50
2019-05-12T09:06:50.265Z,70.60
2019-05-12T09:09:16.404Z,71.80
2019-05-12T09:11:44.220Z,72.10
2019-05-12T09:14:14.442Z,71.20
2019-05-12T09:16:41.220Z,72.10
2019-05-12T09:19:10.201Z,72.00
2019-05-12T09:21:38.340Z,68.20
2019-05-12T09:24:05.962Z,73.80
2019-05-12T09:26:34.467Z,68.20
2019-05-12T09:29:03.418Z,70.00
2019-05-12T09:31:31.074Z,69.90
2019-05-12T09:34:03.490Z,71.10
2019-05-12T09:36:28.528Z,71.50
2019-05-12T09:39:01.731Z,70.70
2019-05-12T09:41:25.430Z,71.20
2019-05-12T09:43:53.477Z,69.40
2019-05-12T09:46:23.195Z,69.30
2019-05-12T09:48:52.826Z,70.50
2019-05-12T09:51:20.603Z,70.10
2019-05-12T09:53:55.188Z,70.40
2019-05-12T09:56:18.128Z,71.20
2019-05-12T09:58:58.235Z,70.60
2019-05-12T10:01:15.462Z,69.40
2019-05-12T10:03:43.813Z,66.20
2019-05-12T10:06:17.904Z,70.00
2019-05-12T10:08:43.446Z,71.80
2019-05-12T10:11:16.596Z,70.90
2019-05-12T10:13:40.556Z,69.30
2019-05-12T10:16:08.935Z,69.70
2019-05-12T10:18:36.828Z,69.30
2019-05-12T10:21:04.284Z,67.80
2019-05-12T10:23:33.610Z,70.70
2019-05-12T10:26:01.645Z,69.00
2019-05-12T10:28:30.698Z,67.90
2019-05-12T10:30:58.538Z,70.20
2019-05-12T10:33:25.925Z,70.30
2019-05-12T10:35:54.157Z,67.80
2019-05-12T10:38:24.099Z,68.50
2019-05-12T10:40:51.889Z,67.30
2019-05-12T10:43:19.415Z,67.20
2019-05-12T10:45:46.909Z,69.80
2019-05-12T10:48:14.426Z,67.50
2019-05-12T10:50:44.140Z,67.90
2019-05-12T10:53:15.617Z,66.80
2019-05-12T10:55:43.933Z,68.00
2019-05-12T10:58:11.157Z,66.40
2019-05-12T11:00:38.591Z,64.70
2019-05-12T11:03:10.614Z,67.30
2019-05-12T11:05:35.813Z,65.90
2019-05-12T11:08:08.610Z,65.40
2019-05-12T11:10:32.750Z,64.60
2019-05-12T11:13:05.919Z,67.30
2019-05-12T11:15:29.801Z,66.20
2019-05-12T11:18:10.031Z,66.00
2019-05-12T11:20:37.598Z,66.50
2019-05-12T11:23:07.552Z,69.50
2019-05-12T11:25:35.265Z,63.50
2019-05-12T11:28:03.874Z,62.20
2019-05-12T11:30:34.291Z,64.30
2019-05-12T11:33:01.432Z,63.50
2019-05-12T11:35:29.057Z,64.90
2019-05-12T11:37:56.713Z,66.40
2019-05-12T11:40:24.096Z,67.40
2019-05-12T11:42:59.032Z,67.60
2019-05-12T11:45:24.032Z,64.10
2019-05-12T11:47:59.221Z,63.10
2019-05-12T11:50:20.781Z,61.30
2019-05-12T11:52:51.085Z,63.10
2019-05-12T11:55:21.325Z,61.10
2019-05-12T11:57:48.004Z,65.70
2019-05-12T12:00:18.154Z,66.30
2019-05-12T12:02:45.654Z,66.70
2019-05-12T12:05:13.864Z,60.50
2019-05-12T12:07:50.575Z,62.90
2019-05-12T12:10:17.981Z,61.60
2019-05-12T12:12:49.270Z,61.50
2019-05-12T12:15:14.824Z,62.50
2019-05-12T12:17:44.125Z,62.10
2019-05-12T12:20:22.129Z,61.60
2019-05-12T12:22:46.051Z,63.50
2019-05-12T12:25:16.030Z,60.30
2019-05-12T12:27:44.300Z,65.50
2019-05-12T12:30:18.802Z,61.90
2019-05-12T12:32:44.242Z,64.40
2019-05-12T12:35:14.880Z,63.20
2019-05-12T12:37:41.634Z,63.50
2019-05-12T12:40:09.223Z,60.50
2019-05-12T12:42:43.688Z,61.90
2019-05-12T12:45:19.901Z,60.30
2019-05-12T12:47:49.286Z,60.10
2019-05-12T12:50:20.225Z,63.70
2019-05-12T12:52:48.772Z,60.60
2019-05-12T12:55:15.438Z,59.20
2019-05-12T12:57:46.387Z,62.00
2019-05-12T13:00:28.815Z,59.20
2019-05-12T13:02:49.216Z,59.60
2019-05-12T13:05:16.900Z,58.70
2019-05-12T13:07:44.411Z,59.80
2019-05-12T13:10:14.033Z,58.80
2019-05-12T13:12:43.522Z,59.10
2019-05-12T13:15:10.993Z,61.20
2019-05-12T13:17:41.783Z,60.60
2019-05-12T13:20:08.954Z,60.10
2019-05-12T13:22:37.113Z,58.00
2019-05-12T13:25:08.629Z,59.20
2019-05-12T13:27:36.921Z,59.50
2019-05-12T13:30:05.490Z,60.00
2019-05-12T13:32:38.035Z,59.50
2019-05-12T13:35:04.191Z,60.30
2019-05-12T13:37:33.818Z,61.90
2019-05-12T13:40:01.370Z,59.00
2019-05-12T13:42:30.506Z,56.20
2019-05-12T13:44:58.964Z,58.30
2019-05-12T13:47:29.146Z,58.50
2019-05-12T13:49:56.299Z,57.10
2019-05-12T13:52:26.365Z,58.40
2019-05-12T13:54:53.387Z,58.50
2019-05-12T13:57:23.479Z,58.70
2019-05-12T13:59:53.724Z,57.30
2019-05-12T14:02:22.045Z,55.50
2019-05-12T14:04:50.865Z,56.70
2019-05-12T14:07:20.275Z,55.90
2019-05-12T14:09:47.803Z,53.90
2019-05-12T14:12:15.166Z,53.70
2019-05-12T14:14:43.694Z,57.40
2019-05-12T14:17:11.716Z,57.10
2019-05-12T14:19:39.217Z,52.30
2019-05-12T14:22:06.971Z,51.90
2019-05-12T14:24:42.050Z,51.50
2019-05-12T14:27:04.162Z,53.20
2019-05-12T14:29:33.400Z,53.90
2019-05-12T14:32:03.105Z,50.50
2019-05-12T14:34:30.507Z,52.00
2019-05-12T14:37:08.401Z,53.30
2019-05-12T14:39:28.694Z,53.70
2019-05-12T14:41:56.584Z,50.60
2019-05-12T14:44:24.130Z,53.30
2019-05-12T14:46:53.472Z,53.30
2019-05-12T14:49:26.382Z,49.60
2019-05-12T14:51:53.559Z,50.80
2019-05-12T14:54:23.748Z,49.80
2019-05-12T14:56:55.435Z,49.30
2019-05-12T14:59:20.441Z,48.50
2019-05-12T15:01:57.436Z,48.00
2019-05-12T15:04:19.480Z,47.10
2019-05-12T15:06:47.097Z,48.20
2019-05-12T15:09:19.655Z,45.70
2019-05-12T15:11:44.792Z,48.20
2019-05-12T15:14:13.749Z,48.60
2019-05-12T15:16:44.701Z,46.30
2019-05-12T15:19:13.764Z,45.10
2019-05-12T15:21:43.533Z,48.30
2019-05-12T15:24:15.257Z,47.00
2019-05-12T15:26:40.685Z,48.20
2019-05-12T15:29:13.307Z,46.60
2019-05-12T15:31:52.462Z,47.60
2019-05-12T15:34:08.094Z,48.00
2019-05-12T15:36:36.244Z,49.60
2019-05-12T15:39:06.885Z,48.90
2019-05-12T15:41:34.956Z,47.20
2019-05-12T15:44:03.313Z,49.00
2019-05-12T15:46:40.781Z,48.00
2019-05-12T15:49:03.456Z,47.10
2019-05-12T15:51:35.462Z,47.60
2019-05-12T15:54:06.232Z,44.70
2019-05-12T15:56:30.457Z,45.90
2019-05-12T15:59:00.814Z,44.60
2019-05-12T16:01:27.513Z,43.90
2019-05-12T16:03:55.014Z,44.20
2019-05-12T16:06:22.633Z,46.00
2019-05-12T16:08:50.165Z,46.50
2019-05-12T16:11:17.535Z,46.70
2019-05-12T16:13:53.878Z,48.00
2019-05-12T16:16:14.582Z,45.20
2019-05-12T16:18:46.680Z,46.20
2019-05-12T16:21:11.772Z,44.60
2019-05-12T16:23:40.059Z,44.80
2019-05-12T16:26:12.327Z,44.90
2019-05-12T16:28:37.636Z,45.10
2019-05-12T16:31:08.685Z,45.00
2019-05-12T16:33:34.981Z,44.60
2019-05-12T16:36:09.448Z,46.60
2019-05-12T16:38:31.991Z,46.40
2019-05-12T16:40:59.494Z,47.30
2019-05-12T16:43:29.339Z,46.60
2019-05-12T16:45:56.214Z,46.50
2019-05-12T16:48:32.035Z,45.40
2019-05-12T16:50:53.601Z,44.60
2019-05-12T16:53:23.292Z,45.00
2019-05-12T16:55:50.544Z,46.80
2019-05-12T16:58:18.003Z,43.30
2019-05-12T17:00:49.373Z,43.30
2019-05-12T17:03:18.196Z,45.40
2019-05-12T17:05:45.049Z,43.30
2019-05-12T17:08:13.906Z,42.10
2019-05-12T17:10:49.087Z,43.00
2019-05-12T17:13:13.912Z,42.70
2019-05-12T17:15:43.158Z,43.60
2019-05-12T17:18:10.418Z,42.20
2019-05-12T17:20:41.017Z,42.10
2019-05-12T17:23:07.844Z,41.30
2019-05-12T17:25:35.348Z,42.10
2019-05-12T17:28:03.796Z,43.70
2019-05-12T17:30:34.425Z,43.50
2019-05-12T17:33:05.045Z,44.30
2019-05-12T17:35:34.275Z,43.80
2019-05-12T17:38:04.056Z,43.70
2019-05-12T17:40:33.708Z,43.40
2019-05-12T17:43:06.796Z,43.10
2019-05-12T17:45:30.481Z,44.70
2019-05-12T17:48:02.995Z,44.50
2019-05-12T17:50:28.676Z,43.60
2019-05-12T17:53:00.221Z,44.60
2019-05-12T17:55:25.475Z,44.40
2019-05-12T17:57:56.329Z,44.60
2019-05-12T18:00:23.535Z,45.40
2019-05-12T18:02:56.282Z,45.20
2019-05-12T18:05:23.259Z,45.60
2019-05-12T18:07:53.198Z,45.90
2019-05-12T18:10:20.686Z,46.00
2019-05-12T18:12:48.077Z,46.00
2019-05-12T18:15:15.892Z,45.90
2019-05-12T18:17:47.405Z,45.90
2019-05-12T18:20:14.449Z,48.40
2019-05-12T18:22:45.165Z,46.00
2019-05-12T18:25:14.670Z,46.30
2019-05-12T18:27:48.049Z,46.60
2019-05-12T18:30:14.370Z,46.10
2019-05-12T18:32:41.372Z,46.60
2019-05-12T18:35:09.988Z,47.10
2019-05-12T18:37:37.542Z,46.90
2019-05-12T18:40:05.348Z,47.00
2019-05-12T18:42:33.717Z,47.60
2019-05-12T18:45:02.415Z,47.80
2019-05-12T18:47:35.734Z,48.30
2019-05-12T18:50:00.772Z,48.60
2019-05-12T18:52:29.318Z,49.20
2019-05-12T18:54:57.561Z,49.10
2019-05-12T18:57:24.948Z,50.20
2019-05-12T18:59:57.124Z,50.30
2019-05-12T19:02:25.189Z,50.20
2019-05-12T19:04:53.905Z,50.30
2019-05-12T19:07:21.392Z,51.10
2019-05-12T19:09:48.859Z,53.90
2019-05-12T19:12:21.154Z,54.60
2019-05-12T19:14:47.130Z,54.90
2019-05-12T19:17:15.450Z,54.90
2019-05-12T19:19:45.931Z,55.10
2019-05-12T19:22:14.139Z,55.60
2019-05-12T19:24:44.364Z,55.30
2019-05-12T19:27:16.620Z,54.70
2019-05-12T19:29:48.170Z,55.80
2019-05-12T19:32:10.932Z,55.50
2019-05-12T19:34:39.412Z,55.20
2019-05-12T19:37:07.498Z,55.70
2019-05-12T19:39:35.328Z,56.30
2019-05-12T19:42:03.765Z,57.50
2019-05-12T19:44:31.629Z,57.70
2019-05-12T19:46:59.292Z,58.00
2019-05-12T19:49:29.659Z,57.90
2019-05-12T19:51:56.233Z,58.70
2019-05-12T19:54:25.598Z,58.70
2019-05-12T19:56:53.725Z,58.90
2019-05-12T19:59:23.606Z,59.60
2019-05-12T20:01:53.513Z,59.90
2019-05-12T20:04:31.865Z,59.80
2019-05-12T20:06:50.730Z,59.70
2019-05-12T20:09:18.518Z,60.80
2019-05-12T20:11:46.188Z,60.60
2019-05-12T20:14:16.552Z,60.50
2019-05-12T20:16:44.044Z,60.10
2019-05-12T20:19:13.580Z,60.40
2019-05-12T20:21:43.636Z,60.70
2019-05-12T20:24:10.372Z,60.30
2019-05-12T20:26:38.304Z,60.60
2019-05-12T20:29:07.028Z,60.40
2019-05-12T20:31:37.481Z,60.80
2019-05-12T20:34:06.327Z,60.40
2019-05-12T20:36:33.869Z,60.20
2019-05-12T20:39:09.426Z,60.10
2019-05-12T20:41:33.509Z,60.60
2019-05-12T20:44:00.606Z,60.90
2019-05-12T20:46:28.690Z,60.30
2019-05-12T20:48:56.088Z,59.90
2019-05-12T20:51:24.369Z,59.90
2019-05-12T20:53:52.928Z,60.90
2019-05-12T20:56:22.089Z,60.10
2019-05-12T20:58:50.042Z,60.30
2019-05-12T21:01:20.323Z,59.10
2019-05-12T21:03:50.858Z,60.70
2019-05-12T21:06:18.438Z,61.00
2019-05-12T21:08:53.117Z,61.70
2019-05-12T21:11:15.333Z,61.90
2019-05-12T21:13:44.017Z,60.40
2019-05-12T21:16:17.555Z,61.60
2019-05-12T21:18:48.020Z,62.30
2019-05-12T21:21:14.313Z,62.50
2019-05-12T21:23:45.551Z,63.20
2019-05-12T21:26:12.079Z,63.70
2019-05-12T21:28:46.104Z,64.10
2019-05-12T21:31:09.377Z,64.20
2019-05-12T21:33:41.490Z,64.10
2019-05-12T21:36:06.244Z,64.20
2019-05-12T21:38:34.160Z,64.30
2019-05-12T21:41:07.578Z,63.70
2019-05-12T21:43:43.739Z,63.50
2019-05-12T21:46:15.558Z,64.20
2019-05-12T21:48:44.449Z,64.90
2019-05-12T21:51:16.569Z,65.20
2019-05-12T21:53:43.584Z,64.20
2019-05-12T21:56:10.802Z,63.50
2019-05-12T21:58:45.436Z,64.30
2019-05-12T22:01:09.374Z,64.80
2019-05-12T22:03:37.214Z,65.60
2019-05-12T22:06:15.499Z,65.20
2019-05-12T22:08:34.169Z,65.70
2019-05-12T22:11:09.485Z,65.90
2019-05-12T22:13:30.827Z,64.60
2019-05-12T22:15:59.609Z,65.00
2019-05-12T22:18:27.118Z,66.10
2019-05-12T22:21:01.215Z,66.30
2019-05-12T22:23:24.846Z,66.10
2019-05-12T22:25:55.710Z,66.00
2019-05-12T22:28:23.882Z,66.20
2019-05-12T22:30:51.305Z,66.00
2019-05-12T22:33:18.615Z,65.70
2019-05-12T22:35:46.243Z,65.10
2019-05-12T22:38:19.347Z,65.90
2019-05-12T22:40:42.988Z,65.50
2019-05-12T22:43:10.330Z,66.50
2019-05-12T22:45:44.368Z,65.70
2019-05-12T22:48:07.439Z,65.70
2019-05-12T22:50:35.406Z,65.10
2019-05-12T22:53:04.422Z,65.50
2019-05-12T22:55:33.263Z,65.90
2019-05-12T22:58:01.957Z,66.00
2019-05-12T23:00:29.824Z,66.10
2019-05-12T23:03:00.471Z,66.20
2019-05-12T23:05:26.603Z,66.50
2019-05-12T23:07:54.553Z,66.60
2019-05-12T23:10:22.154Z,66.30
2019-05-12T23:12:50.258Z,66.90
2019-05-12T23:15:18.834Z,66.90
2019-05-12T23:17:49.392Z,66.80
2019-05-12T23:20:16.087Z,67.80
2019-05-12T23:22:43.869Z,68.20
2019-05-12T23:25:17.562Z,67.90
2019-05-12T23:27:41.076Z,67.70
2019-05-12T23:30:11.275Z,67.50
2019-05-12T23:32:45.365Z,67.30
2019-05-12T23:35:08.636Z,66.90
2019-05-12T23:37:40.141Z,66.90
2019-05-12T23:40:11.539Z,66.70
2019-05-12T23:42:35.080Z,67.10
2019-05-12T23:45:03.588Z,67.40
2019-05-12T23:47:31.122Z,68.10
2019-05-12T23:49:58.717Z,68.00
2019-05-12T23:52:27.010Z,68.50
2019-05-12T23:54:54.495Z,68.60
2019-05-12T23:57:21.869Z,68.90
2019-05-12T23:59:49.272Z,69.20
